Nassauborg — PHDU — position and weather

sailwx.info

Track history (hours):
 
Tides and Currents Weather Stations Pressure Air Temp Water Temp Dewpoint Dewpoint Depression Visibility Wind Speed Wind Dir Waves Ship Positions

Nassauborg

Ship's website: http://www.wagenborg.com/index.cfm?pid=37&itemid=158&contentitemid=236

Last reported at 2016-May-01 19:08 UTC. Time now 2016-May-02 01:20 UTC.
Position N 49°50' W 002°45'.

Length 143 m; beam 22 m.

Type: Ship. MMSI: 246430000.

Date/timePositionNaut miles runAvg speedWind from/ knotsBaromVisibWave heightAir tempDewpointWater temp
2016-May-01 19:08N 49°50' W 002°45'10912.5
2016-May-01 10:24N 48°57' W 005°12'  
2016-Apr-29 02:33N 39°19' W 009°51'1111.5
2016-Apr-29 01:33N 39°07' W 009°51'1111.4
2016-Apr-29 00:33N 38°56' W 009°51'1111.3
2016-Apr-28 23:33N 38°45' W 009°51'1111.0
2016-Apr-28 22:33N 38°34' W 009°49'1211.5
2016-Apr-28 21:33N 38°23' W 009°46'1211.7
2016-Apr-28 20:30N 38°11' W 009°42'1111.4
2016-Apr-28 19:33N 38°00' W 009°39'1111.3
2016-Apr-28 18:33N 37°49' W 009°36'22210.1
2016-Apr-27 20:33N 35°58' W 005°35'9 8.8
2016-Apr-27 19:33N 36°01' W 005°25'9 8.8
2016-Apr-27 18:33N 36°02' W 005°15'21211.6
2016-Apr-27 00:23N 36°42' W 000°57'1011.8
2016-Apr-26 23:31N 36°44' W 000°44'1111.5
2016-Apr-26 22:33N 36°47' W 000°31'1211.8
2016-Apr-26 21:33N 36°50' W 000°16'1311.8
2016-Apr-26 20:30N 36°53' W 000°01'1112.0
2016-Apr-26 19:33N 36°55' E 000°13'6812.4
2016-Apr-26 14:04N 37°12' E 001°35'  
2016-Apr-24 06:05N 36°43' E 013°37'612.1
2016-Apr-24 05:33N 36°41' E 013°44'1212.0
2016-Apr-24 04:34N 36°37' E 013°58'1212.0
2016-Apr-24 03:34N 36°34' E 014°13'1211.8
2016-Apr-24 02:31N 36°30' E 014°27'1211.4
2016-Apr-24 01:30N 36°27' E 014°41'  
Track history (hours):
 
Tides and Currents Weather Stations Pressure Air Temp Water Temp Dewpoint Dewpoint Depression Visibility Wind Speed Wind Dir Waves Ship Positions

Nassauborg

Ship's website: http://www.wagenborg.com/index.cfm?pid=37&itemid=158&contentitemid=236

Last reported at 2016-May-01 19:08 UTC. Time now 2016-May-02 01:20 UTC.
Position N 49°50' W 002°45'.

Length 143 m; beam 22 m.

Type: Ship. MMSI: 246430000.

Date/timePositionNaut miles runAvg speedWind from/ knotsBaromVisibWave heightAir tempDewpointWater temp
2016-May-01 19:08N 49°50' W 002°45'10912.5
2016-May-01 10:24N 48°57' W 005°12'  
2016-Apr-29 02:33N 39°19' W 009°51'1111.5
2016-Apr-29 01:33N 39°07' W 009°51'1111.4
2016-Apr-29 00:33N 38°56' W 009°51'1111.3
2016-Apr-28 23:33N 38°45' W 009°51'1111.0
2016-Apr-28 22:33N 38°34' W 009°49'1211.5
2016-Apr-28 21:33N 38°23' W 009°46'1211.7
2016-Apr-28 20:30N 38°11' W 009°42'1111.4
2016-Apr-28 19:33N 38°00' W 009°39'1111.3
2016-Apr-28 18:33N 37°49' W 009°36'22210.1
2016-Apr-27 20:33N 35°58' W 005°35'9 8.8
2016-Apr-27 19:33N 36°01' W 005°25'9 8.8
2016-Apr-27 18:33N 36°02' W 005°15'21211.6
2016-Apr-27 00:23N 36°42' W 000°57'1011.8
2016-Apr-26 23:31N 36°44' W 000°44'1111.5
2016-Apr-26 22:33N 36°47' W 000°31'1211.8
2016-Apr-26 21:33N 36°50' W 000°16'1311.8
2016-Apr-26 20:30N 36°53' W 000°01'1112.0
2016-Apr-26 19:33N 36°55' E 000°13'6812.4
2016-Apr-26 14:04N 37°12' E 001°35'  
2016-Apr-24 06:05N 36°43' E 013°37'612.1
2016-Apr-24 05:33N 36°41' E 013°44'1212.0
2016-Apr-24 04:34N 36°37' E 013°58'1212.0
2016-Apr-24 03:34N 36°34' E 014°13'1211.8
2016-Apr-24 02:31N 36°30' E 014°27'1211.4
2016-Apr-24 01:30N 36°27' E 014°41'  

Dump ship's entire track history